Time;durP1;ratioP1;P1;durP2;ratioP2;P2;SDS_P1;SDS_P2;PMS_P1;PMS_P2;Temp;Humidity;BMP_temperature;BMP_pressure;BME280_temperature;BME280_humidity;BME280_pressure;Samples;Min_cycle;Max_cycle;Signal;HPM_P1;HPM_P2
2021/04/07 00:00:17;;;;;;;7.53;1.50;;;2.50;99.90;;;3.07;83.37;100132.53;4995653;28;20270;-78
2021/04/07 00:02:44;;;;;;;7.00;1.83;;;2.40;99.90;;;3.06;83.14;100129.13;5013908;28;20210;-78
2021/04/07 00:05:13;;;;;;;7.30;1.70;;;2.40;99.90;;;3.07;83.38;100124.78;5001421;28;20216;-78
2021/04/07 00:07:40;;;;;;;6.43;1.73;;;2.40;99.90;;;3.10;83.12;100132.53;5026220;28;20197;-78
2021/04/07 00:10:11;;;;;;;8.27;1.67;;;2.40;99.90;;;3.07;82.90;100132.53;5016152;28;20214;-77
2021/04/07 00:12:39;;;;;;;7.07;1.50;;;2.40;99.90;;;3.01;83.09;100122.31;4999072;28;20218;-78
2021/04/07 00:15:10;;;;;;;6.13;1.70;;;2.40;99.90;;;3.00;82.95;100125.81;5007196;28;20198;-76
2021/04/07 00:17:36;;;;;;;4.33;1.60;;;2.40;99.90;;;3.00;83.01;100128.38;5007532;28;20212;-78
2021/04/07 00:20:08;;;;;;;8.63;1.90;;;2.40;99.90;;;3.06;82.66;100130.84;4999173;28;20238;-79
2021/04/07 00:22:34;;;;;;;6.90;2.30;;;2.40;99.90;;;3.04;82.41;100133.47;5005304;28;20206;-78
2021/04/07 00:25:01;;;;;;;7.97;1.70;;;2.40;99.90;;;2.96;82.58;100142.22;5019678;28;20555;-78
2021/04/07 00:27:28;;;;;;;7.90;1.60;;;2.40;99.90;;;2.95;82.95;100137.94;5030171;28;20247;-77
2021/04/07 00:29:55;;;;;;;7.23;1.90;;;2.40;99.90;;;2.96;82.54;100137.91;5038397;28;20223;-78
2021/04/07 00:32:21;;;;;;;6.37;1.87;;;2.40;99.90;;;2.99;82.83;100137.00;4999205;28;20195;-78
2021/04/07 00:34:48;;;;;;;10.17;2.00;;;2.40;99.90;;;3.04;82.60;100141.22;5008734;28;20190;-78
2021/04/07 00:37:14;;;;;;;11.50;2.27;;;2.40;99.90;;;3.06;82.36;100130.84;5005633;28;20617;-78
2021/04/07 00:39:41;;;;;;;6.87;1.90;;;2.40;99.90;;;3.04;82.24;100142.94;5031286;28;20229;-79
2021/04/07 00:42:08;;;;;;;6.83;2.13;;;2.40;99.90;;;3.02;82.57;100147.28;5003047;28;20242;-78
2021/04/07 00:44:35;;;;;;;11.73;2.00;;;2.40;99.90;;;3.04;82.37;100146.38;5018522;28;20211;-78
2021/04/07 00:47:03;;;;;;;8.17;2.00;;;2.40;99.90;;;3.06;82.09;100143.78;5000326;28;20187;-78
2021/04/07 00:49:29;;;;;;;8.33;2.20;;;2.40;99.90;;;3.03;82.41;100143.84;5000455;28;20230;-77
2021/04/07 00:51:56;;;;;;;9.87;2.00;;;2.50;99.90;;;3.05;82.13;100149.84;5006074;28;20218;-77
2021/04/07 00:54:23;;;;;;;9.27;2.00;;;2.50;99.90;;;3.07;81.96;100151.50;5037633;28;20300;-76
2021/04/07 00:56:52;;;;;;;8.07;2.07;;;2.50;99.90;;;3.08;81.81;100149.78;5009827;28;20313;-76
2021/04/07 00:59:22;;;;;;;7.20;1.83;;;2.50;99.90;;;3.07;81.55;100153.22;5022766;28;20278;-76
2021/04/07 01:01:49;;;;;;;7.97;2.03;;;2.50;99.90;;;3.08;81.61;100157.53;5006237;28;20250;-78
2021/04/07 01:04:21;;;;;;;8.27;2.23;;;2.50;99.90;;;3.09;81.54;100161.81;5001320;28;20533;-78
2021/04/07 01:06:48;;;;;;;14.03;2.27;;;2.50;99.90;;;3.09;81.49;100164.38;5005786;28;20201;-77
2021/04/07 01:09:15;;;;;;;10.03;2.23;;;2.50;99.90;;;3.06;81.15;100160.13;5016241;28;20707;-77
2021/04/07 01:11:41;;;;;;;10.50;2.07;;;2.50;99.90;;;3.01;80.93;100158.50;5040741;28;20252;-78
2021/04/07 01:14:08;;;;;;;10.37;2.30;;;2.40;99.90;;;2.96;80.95;100158.59;5030071;28;20222;-77
2021/04/07 01:16:35;;;;;;;10.63;2.30;;;2.40;99.90;;;2.93;80.92;100161.19;5000434;28;20203;-76
2021/04/07 01:19:01;;;;;;;10.13;2.00;;;2.40;99.90;;;2.95;81.24;100164.59;5006755;28;20218;-77
2021/04/07 01:21:28;;;;;;;9.77;2.20;;;2.40;99.90;;;2.98;81.08;100167.13;5017775;28;20222;-78
2021/04/07 01:23:56;;;;;;;9.23;2.17;;;2.40;99.90;;;3.00;80.84;100164.56;5022882;28;20230;-75
2021/04/07 01:26:22;;;;;;;12.30;2.03;;;2.40;99.90;;;3.05;80.90;100173.09;5015494;28;20203;-77
2021/04/07 01:28:48;;;;;;;6.47;1.67;;;2.40;99.90;;;3.01;80.74;100166.25;5018577;28;20226;-76
2021/04/07 01:31:16;;;;;;;9.30;2.13;;;2.40;99.90;;;2.98;81.12;100169.72;5026532;28;20278;-77
2021/04/07 01:33:43;;;;;;;7.10;1.77;;;2.40;99.90;;;3.03;81.16;100169.66;5016367;28;20195;-80
2021/04/07 01:36:09;;;;;;;10.87;2.90;;;2.40;99.90;;;3.03;81.01;100174.84;5041900;28;20221;-78
2021/04/07 01:38:36;;;;;;;8.23;2.10;;;2.50;99.90;;;3.04;80.99;100161.03;5024112;28;20232;-77
2021/04/07 01:41:05;;;;;;;6.00;1.97;;;2.40;99.90;;;3.05;80.84;100173.09;5038367;28;20199;-78
2021/04/07 01:43:32;;;;;;;8.60;1.90;;;2.40;99.90;;;3.03;81.19;100177.41;5026453;28;20285;-78
2021/04/07 01:45:59;;;;;;;10.07;2.20;;;2.40;99.90;;;3.05;81.23;100175.66;5010165;28;20213;-78
2021/04/07 01:48:26;;;;;;;7.97;2.27;;;2.40;99.90;;;3.06;81.05;100175.63;5014159;28;20336;-78
2021/04/07 01:50:53;;;;;;;4.63;1.60;;;2.40;99.90;;;3.12;81.44;100179.84;5003861;28;20333;-78
2021/04/07 01:53:20;;;;;;;6.20;1.73;;;2.50;99.90;;;3.09;80.94;100173.00;5017024;28;20194;-78
2021/04/07 01:55:47;;;;;;;9.43;1.87;;;2.50;99.90;;;3.09;81.06;100182.47;5025613;28;20248;-78
2021/04/07 01:58:15;;;;;;;8.67;1.70;;;2.50;99.90;;;3.08;80.88;100183.38;5002119;28;20190;-78
2021/04/07 02:00:41;;;;;;;9.60;2.00;;;2.50;99.90;;;3.10;80.69;100168.69;5001572;28;20582;-79
2021/04/07 02:03:08;;;;;;;8.33;1.80;;;2.50;99.90;;;3.10;80.60;100171.28;4998095;28;20671;-78
2021/04/07 02:05:34;;;;;;;10.07;1.80;;;2.50;99.90;;;3.09;80.89;100179.88;5002035;28;20218;-78
2021/04/07 02:08:01;;;;;;;9.63;1.80;;;2.50;99.90;;;3.11;80.69;100185.91;5012549;28;20202;-78
2021/04/07 02:10:32;;;;;;;9.37;2.17;;;2.50;99.90;;;3.13;80.31;100177.22;5013994;28;20682;-78
2021/04/07 02:13:01;;;;;;;6.70;1.77;;;2.50;99.90;;;3.14;79.99;100185.84;5005332;28;20200;-78
2021/04/07 02:15:31;;;;;;;8.50;1.97;;;2.50;99.90;;;3.09;79.93;100187.66;5009568;28;20674;-78
2021/04/07 02:17:57;;;;;;;6.83;2.00;;;2.50;99.90;;;3.06;79.91;100191.16;5007347;28;20663;-78
2021/04/07 02:20:24;;;;;;;8.50;2.10;;;2.40;99.90;;;3.06;79.88;100195.44;5008962;28;20582;-78
2021/04/07 02:22:51;;;;;;;9.87;1.93;;;2.40;99.90;;;3.10;79.95;100197.94;4994239;28;20277;-78
2021/04/07 02:25:18;;;;;;;8.97;2.00;;;2.50;99.90;;;3.14;79.65;100199.63;4997296;28;20270;-77
2021/04/07 02:27:44;;;;;;;9.27;2.00;;;2.50;99.90;;;3.13;79.93;100207.41;5006198;28;20580;-78
2021/04/07 02:30:15;;;;;;;5.93;1.73;;;2.50;99.90;;;3.10;79.40;100205.72;5017216;28;20272;-78
2021/04/07 02:32:42;;;;;;;9.87;2.00;;;2.50;99.90;;;3.12;79.33;100216.88;4993023;28;20289;-78
2021/04/07 02:35:10;;;;;;;8.57;1.77;;;2.50;99.90;;;3.09;79.48;100209.19;5008346;28;20634;-79
2021/04/07 02:37:37;;;;;;;10.47;2.10;;;2.50;99.90;;;3.06;79.80;100221.28;5012822;28;20269;-77
2021/04/07 02:40:05;;;;;;;7.73;1.73;;;2.40;99.90;;;3.01;79.89;100217.91;5031696;28;20217;-77
2021/04/07 02:42:32;;;;;;;9.13;2.07;;;2.40;99.90;;;3.03;79.99;100211.00;5004889;28;20201;-78
2021/04/07 02:44:58;;;;;;;6.87;1.90;;;2.40;99.90;;;3.00;80.21;100214.47;5001431;28;20226;-79
2021/04/07 02:47:24;;;;;;;8.03;2.13;;;2.40;99.90;;;3.07;80.15;100207.47;4993499;28;20738;-76
2021/04/07 02:49:52;;;;;;;12.83;2.10;;;2.40;99.90;;;3.06;79.84;100218.72;4994589;28;20215;-78
2021/04/07 02:52:20;;;;;;;7.97;1.93;;;2.40;99.90;;;3.02;80.00;100212.72;4992889;28;20219;-79
2021/04/07 02:54:46;;;;;;;9.10;1.83;;;2.40;99.90;;;3.01;80.15;100210.16;4999530;28;20217;-78
2021/04/07 02:57:12;;;;;;;9.47;2.30;;;2.40;99.90;;;3.03;80.16;100208.44;5020409;28;20202;-79
2021/04/07 02:59:39;;;;;;;10.77;2.17;;;2.40;99.90;;;3.04;80.27;100207.53;5030430;28;20679;-78
2021/04/07 03:02:06;;;;;;;7.60;2.03;;;2.40;99.90;;;3.03;79.89;100211.84;5022035;28;20191;-78
2021/04/07 03:04:32;;;;;;;8.00;2.10;;;2.40;99.90;;;3.00;80.18;100211.91;5031616;28;20221;-78
2021/04/07 03:07:00;;;;;;;9.10;2.23;;;2.40;99.90;;;3.05;80.43;100217.84;5034768;28;20190;-78
2021/04/07 03:09:26;;;;;;;9.53;2.40;;;2.40;99.90;;;3.04;80.12;100212.69;5040367;28;20214;-79
2021/04/07 03:11:53;;;;;;;8.93;2.40;;;2.40;99.90;;;3.03;80.49;100226.50;5057418;28;20213;-79
2021/04/07 03:14:19;;;;;;;9.30;2.20;;;2.40;99.90;;;3.03;80.57;100216.19;5057888;28;20287;-79
2021/04/07 03:16:45;;;;;;;11.47;2.33;;;2.40;99.90;;;3.00;80.16;100216.22;5033837;28;20206;-79
2021/04/07 03:19:12;;;;;;;10.07;2.43;;;2.40;99.90;;;2.98;80.56;100215.41;5021408;28;20252;-79
2021/04/07 03:21:38;;;;;;;9.37;2.10;;;2.40;99.90;;;2.99;80.26;100215.38;5013518;28;20194;-78
2021/04/07 03:24:06;;;;;;;8.77;2.13;;;2.40;99.90;;;3.01;80.70;100217.91;5032536;28;20206;-78
2021/04/07 03:26:32;;;;;;;9.30;2.17;;;2.40;99.90;;;3.01;80.52;100220.50;5008326;28;20197;-80
2021/04/07 03:28:59;;;;;;;9.80;2.10;;;2.40;99.90;;;3.03;80.56;100218.75;5030599;28;20225;-79
2021/04/07 03:31:28;;;;;;;8.43;2.10;;;2.40;99.90;;;3.04;80.33;100231.66;5029956;28;20218;-80
2021/04/07 03:33:55;;;;;;;8.60;2.10;;;2.40;99.90;;;3.08;80.43;100228.13;5024802;28;20214;-78
2021/04/07 03:36:21;;;;;;;11.03;2.13;;;2.40;99.90;;;3.08;80.40;100229.88;5044850;28;20221;-79
2021/04/07 03:38:48;;;;;;;11.33;2.70;;;2.40;99.90;;;3.05;80.43;100229.94;5043682;28;20609;-79
2021/04/07 03:41:15;;;;;;;8.63;2.00;;;2.40;99.90;;;3.05;80.32;100237.69;5019633;28;20187;-79
2021/04/07 03:43:41;;;;;;;11.47;2.60;;;2.40;99.90;;;3.00;80.26;100232.56;4999938;28;20200;-78
2021/04/07 03:46:08;;;;;;;9.33;2.37;;;2.40;99.90;;;3.03;80.34;100234.25;5007704;28;20203;-78
2021/04/07 03:48:34;;;;;;;10.03;2.63;;;2.40;99.90;;;3.04;80.32;100241.13;5018415;28;20748;-79
2021/04/07 03:51:01;;;;;;;10.60;3.23;;;2.40;99.90;;;3.00;80.46;100247.22;5005783;28;20210;-78
2021/04/07 03:53:28;;;;;;;7.97;2.20;;;2.40;99.90;;;3.01;80.15;100247.22;5020969;28;20279;-78
2021/04/07 03:55:58;;;;;;;10.80;2.70;;;2.40;99.90;;;3.04;80.30;100249.75;5014608;28;20187;-78
2021/04/07 03:58:25;;;;;;;9.00;2.33;;;2.40;99.90;;;3.06;79.99;100247.13;5012819;28;20557;-78
2021/04/07 04:00:53;;;;;;;11.33;2.83;;;2.40;99.90;;;3.05;79.99;100259.19;5010025;28;20190;-78
2021/04/07 04:03:20;;;;;;;11.77;2.73;;;2.40;99.90;;;3.09;80.34;100268.59;5008587;28;20251;-76
2021/04/07 04:05:48;;;;;;;10.47;3.10;;;2.40;99.90;;;3.12;79.95;100263.38;5010406;28;20244;-79
2021/04/07 04:08:15;;;;;;;9.20;2.30;;;2.50;99.90;;;3.13;80.03;100266.84;5026430;28;20193;-78
2021/04/07 04:10:42;;;;;;;10.30;2.30;;;2.50;99.90;;;3.14;80.13;100269.41;5006523;28;20222;-79
2021/04/07 04:13:08;;;;;;;10.23;2.73;;;2.50;99.90;;;3.11;79.88;100264.28;5003090;28;20289;-79
2021/04/07 04:15:36;;;;;;;11.37;2.57;;;2.50;99.90;;;3.15;80.01;100262.50;5005699;28;20655;-78
2021/04/07 04:18:06;;;;;;;9.80;2.53;;;2.50;99.90;;;3.15;80.08;100272.84;5005783;28;20192;-79
2021/04/07 04:20:32;;;;;;;12.07;3.07;;;2.50;99.90;;;3.11;79.89;100274.63;5005402;28;20213;-78
2021/04/07 04:22:59;;;;;;;11.63;2.87;;;2.50;99.90;;;3.08;80.07;100279.81;5009717;28;20201;-78
2021/04/07 04:25:25;;;;;;;10.33;2.63;;;2.50;99.90;;;3.04;80.26;100278.16;5031882;28;20540;-77
2021/04/07 04:27:52;;;;;;;9.40;2.70;;;2.50;99.90;;;3.09;80.37;100284.13;5008002;28;20288;-78
2021/04/07 04:30:22;;;;;;;9.30;3.00;;;2.50;99.90;;;3.15;79.96;100280.59;4996605;28;20203;-77
2021/04/07 04:32:51;;;;;;;10.13;2.97;;;2.50;99.90;;;3.15;80.21;100298.69;5012467;28;20687;-78
2021/04/07 04:35:18;;;;;;;13.33;2.70;;;2.50;99.90;;;3.12;80.10;100286.66;5006349;28;20206;-79
2021/04/07 04:37:46;;;;;;;14.37;2.97;;;2.50;99.90;;;3.12;80.06;100294.41;5013699;28;20233;-78
2021/04/07 04:40:15;;;;;;;11.00;2.80;;;2.50;99.90;;;3.11;79.80;100308.22;5025296;28;20237;-76
2021/04/07 04:42:41;;;;;;;10.63;2.80;;;2.50;99.90;;;3.07;79.90;100300.50;5017023;28;20198;-79
2021/04/07 04:45:09;;;;;;;14.07;2.93;;;2.40;99.90;;;3.06;80.03;100304.84;5027122;28;20197;-79
2021/04/07 04:47:36;;;;;;;10.70;2.80;;;2.50;99.90;;;3.09;79.88;100309.94;5001759;28;20706;-79
2021/04/07 04:50:07;;;;;;;10.57;2.93;;;2.50;99.90;;;3.09;79.87;100315.13;4995900;28;20218;-77
2021/04/07 04:52:33;;;;;;;13.57;3.07;;;2.50;99.90;;;3.12;80.15;100304.72;5000842;28;20195;-78
2021/04/07 04:55:00;;;;;;;9.40;2.63;;;2.50;99.90;;;3.16;79.81;100313.31;5003939;28;20222;-78
2021/04/07 04:57:26;;;;;;;10.87;2.60;;;2.50;99.90;;;3.20;79.71;100325.31;5009289;28;20198;-78
2021/04/07 04:59:53;;;;;;;9.80;3.03;;;2.60;99.90;;;3.19;79.41;100321.00;5027941;28;20218;-79
2021/04/07 05:02:19;;;;;;;10.27;2.60;;;2.60;99.90;;;3.18;79.57;100327.06;5014085;28;20218;-78
2021/04/07 05:04:45;;;;;;;11.53;2.73;;;2.60;99.90;;;3.21;79.40;100329.59;4996943;28;20628;-78
2021/04/07 05:07:12;;;;;;;10.10;2.70;;;2.60;99.90;;;3.16;79.16;100333.97;5009737;28;20663;-78
2021/04/07 05:09:39;;;;;;;15.93;2.90;;;2.60;99.90;;;3.13;79.28;100334.03;5013691;28;20222;-78
2021/04/07 05:12:06;;;;;;;9.20;2.63;;;2.60;99.90;;;3.15;79.38;100345.19;5017505;28;20210;-79
2021/04/07 05:14:32;;;;;;;12.23;2.37;;;2.60;99.90;;;3.16;79.27;100336.56;5004012;28;20201;-79
2021/04/07 05:17:08;;;;;;;11.83;2.50;;;2.60;99.90;;;3.18;79.05;100339.97;5012282;28;20329;-77
2021/04/07 05:19:34;;;;;;;12.10;2.70;;;2.60;99.90;;;3.16;79.19;100349.47;5025804;28;20226;-79
2021/04/07 05:22:04;;;;;;;13.30;2.53;;;2.60;99.90;;;3.14;79.29;100348.66;5002337;28;20551;-79
2021/04/07 05:24:31;;;;;;;11.33;2.90;;;2.60;99.90;;;3.13;79.03;100347.78;5013024;28;20191;-78
2021/04/07 05:26:58;;;;;;;10.00;2.13;;;2.60;99.90;;;3.12;78.97;100353.84;5012345;28;20216;-78
2021/04/07 05:29:24;;;;;;;9.77;2.33;;;2.60;99.90;;;3.13;79.16;100365.88;4995883;28;20211;-80
2021/04/07 05:31:51;;;;;;;10.40;2.30;;;2.60;99.90;;;3.10;78.73;100373.66;5006063;28;20327;-79
2021/04/07 05:34:17;;;;;;;9.30;2.57;;;2.60;99.90;;;3.10;79.22;100378.84;5025997;28;20194;-78
2021/04/07 05:36:43;;;;;;;13.03;3.07;;;2.60;99.90;;;3.12;78.71;100379.69;5009872;28;20225;-78
2021/04/07 05:39:10;;;;;;;10.70;2.53;;;2.60;99.90;;;3.11;78.59;100375.41;5010399;28;20217;-78
2021/04/07 05:41:37;;;;;;;10.67;2.77;;;2.60;99.90;;;3.11;78.53;100390.03;5023918;28;20198;-79
2021/04/07 05:44:04;;;;;;;12.30;2.60;;;2.60;99.90;;;3.09;78.51;100371.09;5010580;28;20229;-77
2021/04/07 05:46:31;;;;;;;10.97;2.53;;;2.60;99.90;;;3.07;78.87;100383.19;5020961;28;20228;-78
2021/04/07 05:48:57;;;;;;;9.70;2.63;;;2.60;99.90;;;3.09;78.69;100399.53;5006012;28;20223;-79
2021/04/07 05:51:24;;;;;;;9.47;2.17;;;2.60;99.90;;;3.07;78.60;100381.47;5010160;28;20211;-78
2021/04/07 05:53:51;;;;;;;10.13;2.33;;;2.60;99.90;;;3.11;78.89;100390.91;5016049;28;20668;-79
2021/04/07 05:56:17;;;;;;;12.67;2.40;;;2.60;99.90;;;3.19;78.70;100396.81;5000281;28;20606;-78
2021/04/07 05:58:44;;;;;;;11.97;2.33;;;2.70;99.90;;;3.19;78.23;100406.28;4999770;28;20257;-78
2021/04/07 06:01:11;;;;;;;10.93;2.73;;;2.70;99.90;;;3.19;78.39;100398.53;5021966;28;20201;-76
2021/04/07 06:03:37;;;;;;;12.63;2.47;;;2.70;99.90;;;3.15;78.09;100408.06;5005257;28;20205;-79
2021/04/07 06:06:07;;;;;;;11.37;2.67;;;2.70;99.90;;;3.17;78.35;100410.63;5022998;28;20206;-79
2021/04/07 06:08:34;;;;;;;10.77;3.03;;;2.70;99.90;;;3.24;77.84;100415.72;5014529;28;20205;-77
2021/04/07 06:11:00;;;;;;;9.40;2.60;;;2.80;99.90;;;3.28;77.99;100417.34;5015552;28;20647;-77
2021/04/07 06:13:29;;;;;;;11.57;2.90;;;2.80;99.90;;;3.28;78.04;100409.59;5011373;28;20201;-78
2021/04/07 06:15:57;;;;;;;13.73;2.10;;;2.80;99.90;;;3.26;77.65;100416.53;5005322;28;20262;-76
2021/04/07 06:18:23;;;;;;;10.57;2.17;;;2.80;99.90;;;3.28;77.70;100414.78;5000133;28;20210;-77
2021/04/07 06:20:50;;;;;;;12.73;2.80;;;2.80;99.90;;;3.27;77.65;100420.81;5002717;28;20194;-77
2021/04/07 06:23:20;;;;;;;11.63;2.97;;;2.80;99.90;;;3.25;77.56;100419.16;5006498;28;20198;-76
2021/04/07 06:25:47;;;;;;;8.87;2.50;;;2.80;99.90;;;3.20;77.36;100426.94;5025932;28;20201;-76
2021/04/07 06:28:16;;;;;;;9.27;2.50;;;2.70;99.90;;;3.17;77.56;100426.13;5011719;28;20249;-76
2021/04/07 06:30:45;;;;;;;10.17;2.70;;;2.70;99.90;;;3.23;77.66;100426.06;5008957;28;20227;-77
2021/04/07 06:33:16;;;;;;;11.57;2.83;;;2.80;99.90;;;3.32;77.57;100426.78;5020681;28;20197;-77
2021/04/07 06:35:45;;;;;;;14.07;3.00;;;2.80;99.90;;;3.35;77.34;100433.66;5026567;28;20198;-77
2021/04/07 06:38:12;;;;;;;12.60;2.80;;;2.90;99.90;;;3.41;77.32;100433.56;5010618;28;20205;-77
2021/04/07 06:40:41;;;;;;;10.47;2.47;;;2.90;99.90;;;3.42;77.53;100438.72;5012660;28;20661;-76
2021/04/07 06:43:07;;;;;;;14.47;2.70;;;2.90;99.90;;;3.42;76.77;100437.84;5013172;28;20198;-76
2021/04/07 06:45:37;;;;;;;11.63;2.53;;;3.00;99.90;;;3.45;77.30;100432.66;5029075;28;20240;-77
2021/04/07 06:48:05;;;;;;;11.20;2.37;;;3.00;99.90;;;3.46;77.18;100429.19;5010294;28;20201;-75
2021/04/07 06:50:33;;;;;;;11.17;2.50;;;3.00;99.90;;;3.46;76.90;100434.38;5011323;28;20643;-76
2021/04/07 06:53:02;;;;;;;12.60;2.57;;;3.00;99.90;;;3.46;77.10;100440.41;5010952;28;20194;-79
2021/04/07 06:55:31;;;;;;;12.37;2.57;;;3.00;99.90;;;3.55;77.13;100439.44;5024011;28;20208;-80
2021/04/07 06:57:57;;;;;;;11.10;2.57;;;3.10;99.90;;;3.65;76.89;100446.19;5028020;28;20205;-81
2021/04/07 07:00:27;;;;;;;10.13;2.10;;;3.20;99.90;;;3.67;76.43;100449.56;5009413;28;20693;-77
2021/04/07 07:03:02;;;;;;;7.63;2.20;;;3.20;99.90;;;3.62;76.43;100457.41;5019013;28;20195;-79
2021/04/07 07:05:32;;;;;;;13.73;2.80;;;3.20;99.90;;;3.46;76.82;100455.06;5037631;28;20197;-76
2021/04/07 07:08:03;;;;;;;13.17;2.67;;;3.10;99.90;;;3.25;77.62;100463.94;4999816;28;20293;-77
2021/04/07 07:10:42;;;;;;;7.90;2.50;;;2.90;99.90;;;3.14;78.68;100454.59;5005911;28;20215;-76
2021/04/07 07:13:16;;;;;;;14.77;3.20;;;2.80;99.90;;;3.04;79.60;100464.19;5020465;28;20279;-76
2021/04/07 07:15:43;;;;;;;13.80;2.87;;;2.60;99.90;;;2.96;80.73;100467.72;5038458;28;20208;-76
2021/04/07 07:18:09;;;;;;;15.57;2.60;;;2.50;99.90;;;2.97;81.38;100464.28;4997800;28;20198;-75
2021/04/07 07:20:39;;;;;;;11.00;2.40;;;2.50;99.90;;;2.97;81.95;100464.28;5009297;28;20257;-76
2021/04/07 07:23:06;;;;;;;11.60;2.50;;;2.50;99.90;;;2.93;82.01;100470.34;5008335;28;20194;-78
2021/04/07 07:25:33;;;;;;;13.70;3.40;;;2.50;99.90;;;2.87;82.73;100468.69;5023931;28;20804;-78
2021/04/07 07:28:03;;;;;;;9.60;2.73;;;2.50;99.90;;;2.97;82.69;100461.69;5008710;28;20213;-78
2021/04/07 07:30:42;;;;;;;13.47;3.00;;;2.60;99.90;;;3.11;82.68;100462.41;5009834;28;20210;-77
2021/04/07 07:33:17;;;;;;;18.63;2.97;;;2.80;99.90;;;3.19;82.73;100471.78;5017292;28;20205;-77
2021/04/07 07:35:46;;;;;;;13.37;3.10;;;2.80;99.90;;;3.23;82.54;100473.44;5038208;28;20216;-78
2021/04/07 07:38:21;;;;;;;12.73;2.80;;;2.90;99.90;;;3.29;82.39;100475.97;5007654;28;20312;-76
2021/04/07 07:40:47;;;;;;;18.47;2.67;;;3.00;99.90;;;3.32;81.82;100472.47;5012737;28;20240;-76
2021/04/07 07:43:14;;;;;;;14.37;2.50;;;3.00;99.90;;;3.36;81.52;100466.41;5019405;28;20673;-77
2021/04/07 07:45:42;;;;;;;10.70;2.73;;;3.10;99.90;;;3.46;81.52;100475.75;5021745;28;20220;-77
2021/04/07 07:48:13;;;;;;;10.80;2.50;;;3.20;99.90;;;3.54;80.99;100476.50;5027435;28;20202;-77
2021/04/07 07:50:43;;;;;;;12.87;2.80;;;3.20;99.90;;;3.60;80.37;100479.84;5010199;28;20233;-80
2021/04/07 07:53:17;;;;;;;8.77;2.60;;;3.30;99.90;;;3.64;80.34;100496.19;5008948;28;20196;-76
2021/04/07 07:55:46;;;;;;;8.37;2.20;;;3.40;99.90;;;3.64;79.86;100488.44;5015214;28;20222;-75
2021/04/07 07:58:13;;;;;;;9.63;2.40;;;3.40;99.90;;;3.63;79.85;100492.72;5022668;28;20204;-76
2021/04/07 08:00:40;;;;;;;10.67;2.43;;;3.40;99.90;;;3.63;79.37;100491.91;5022539;28;20210;-76
2021/04/07 08:03:10;;;;;;;14.00;2.80;;;3.40;99.90;;;3.63;79.15;100495.31;5015988;28;20228;-78
2021/04/07 08:05:38;;;;;;;13.63;3.03;;;3.40;99.90;;;3.70;79.04;100501.28;5006559;28;20198;-77
2021/04/07 08:08:06;;;;;;;11.80;2.30;;;3.50;99.90;;;3.73;78.55;100496.91;5014698;28;20193;-79
2021/04/07 08:10:37;;;;;;;13.50;2.57;;;3.60;99.90;;;3.95;78.55;100507.84;5005537;28;20225;-80
2021/04/07 08:13:08;;;;;;;14.83;2.40;;;3.70;99.90;;;4.06;77.43;100500.75;5008134;28;20219;-79
2021/04/07 08:15:38;;;;;;;11.97;2.47;;;3.90;99.90;;;4.07;76.78;100510.22;5005714;28;20194;-81
2021/04/07 08:18:07;;;;;;;17.33;2.63;;;4.00;99.90;;;4.11;76.83;100504.13;5021083;28;20202;-80
2021/04/07 08:20:37;;;;;;;13.15;2.20;;;4.10;99.90;;;4.19;76.29;100504.88;5018111;28;20265;-80
2021/04/07 08:23:06;;;;;;;8.07;2.20;;;4.10;99.90;;;4.33;75.93;100508.09;5023902;28;20209;-80
2021/04/07 08:25:34;;;;;;;12.07;2.65;;;4.30;99.90;;;4.49;75.58;100512.16;5042057;28;20253;-80
2021/04/07 08:28:03;;;;;;;9.10;2.53;;;4.50;99.90;;;4.67;75.16;100509.25;5016280;28;20181;-79
2021/04/07 08:30:30;;;;;;;9.85;2.20;;;4.60;99.90;;;4.92;74.88;100514.88;5021701;28;20282;-77
2021/04/07 08:32:59;;;;;;;7.87;1.90;;;4.90;99.90;;;5.02;74.00;100519.00;5028490;28;20182;-81
2021/04/07 08:35:27;;;;;;;6.78;1.80;;;5.00;99.90;;;4.97;73.35;100516.47;5039185;28;20279;-82
2021/04/07 08:37:59;;;;;;;12.57;2.50;;;4.90;99.90;;;4.88;72.84;100521.84;5017061;28;20189;-81
2021/04/07 08:40:42;;;;;;;15.52;2.33;;;4.80;99.90;;;4.83;72.59;100517.63;5024059;28;20226;-77
2021/04/07 08:43:11;;;;;;;13.52;2.10;;;4.80;99.90;;;4.84;72.34;100521.91;5026000;28;20170;-79
2021/04/07 08:45:42;;;;;;;9.90;2.43;;;4.70;99.90;;;4.81;72.29;100515.06;5036298;28;20200;-77
2021/04/07 08:48:18;;;;;;;12.05;2.30;;;4.70;99.90;;;4.87;72.07;100514.94;5016578;28;20210;-78
2021/04/07 08:50:47;;;;;;;9.70;2.42;;;4.80;99.90;;;5.01;72.10;100522.47;4999220;28;20245;-76
2021/04/07 08:53:16;;;;;;;9.68;2.00;;;4.90;99.90;;;5.17;71.90;100516.13;5027591;28;20224;-76
2021/04/07 08:55:53;;;;;;;7.68;1.90;;;5.10;99.90;;;5.20;71.06;100515.19;5018688;28;20222;-78
2021/04/07 08:58:27;;;;;;;11.15;1.98;;;5.10;99.90;;;5.23;70.79;100517.72;5025210;28;20254;-75
2021/04/07 09:00:56;;;;;;;11.65;2.05;;;5.20;99.90;;;5.38;70.47;100520.03;5009506;28;20725;-74
2021/04/07 09:03:26;;;;;;;8.25;2.40;;;5.30;99.90;;;5.53;70.31;100523.16;5012872;28;20193;-76
2021/04/07 09:05:53;;;;;;;12.45;1.98;;;5.50;99.90;;;5.68;69.78;100528.03;5040259;28;20197;-76
2021/04/07 09:08:23;;;;;;;9.80;2.20;;;5.70;99.90;;;5.71;69.29;100525.38;5027058;28;20301;-74
2021/04/07 09:10:53;;;;;;;10.27;2.15;;;5.70;99.90;;;5.68;68.72;100532.38;5038379;28;20292;-75
2021/04/07 09:13:23;;;;;;;8.15;1.73;;;5.70;99.90;;;5.71;68.31;100529.75;5013955;28;20205;-76
2021/04/07 09:15:53;;;;;;;15.30;2.58;;;5.80;99.90;;;5.78;67.85;100524.38;5024394;28;20186;-76
2021/04/07 09:18:34;;;;;;;8.70;2.10;;;5.90;99.90;;;5.88;67.30;100536.31;5000446;28;20185;-75
2021/04/07 09:21:01;;;;;;;5.82;1.70;;;6.00;99.90;;;5.95;66.28;100540.47;5006869;28;20190;-77
2021/04/07 09:23:31;;;;;;;11.13;2.33;;;6.10;99.90;;;6.06;66.11;100541.09;5014895;28;20205;-77
2021/04/07 09:26:06;;;;;;;8.13;1.58;;;6.10;99.90;;;6.00;65.21;100550.75;5027141;28;20229;-77
2021/04/07 09:28:36;;;;;;;9.63;1.77;;;6.00;99.90;;;5.93;64.93;100543.97;5027850;28;20285;-75
2021/04/07 09:31:25;;;;;;;7.72;1.85;;;6.00;99.90;;;5.89;64.56;100547.53;5000974;28;20210;-75
2021/04/07 09:33:55;;;;;;;9.65;2.13;;;6.00;99.90;;;5.89;64.59;100542.34;5013446;28;20193;-78
2021/04/07 09:36:27;;;;;;;11.50;2.30;;;5.90;99.90;;;5.93;64.63;100549.16;5025203;28;20210;-77
2021/04/07 09:38:56;;;;;;;10.80;2.10;;;5.90;99.90;;;5.93;64.18;100549.16;5039896;28;20218;-79
2021/04/07 09:41:26;;;;;;;11.02;1.92;;;5.90;99.90;;;6.05;63.87;100541.97;5016777;28;20205;-80
2021/04/07 09:43:54;;;;;;;13.25;2.63;;;6.10;99.90;;;6.20;62.82;100548.56;5016024;28;20200;-79
2021/04/07 09:46:21;;;;;;;10.35;2.08;;;6.20;99.90;;;6.14;61.79;100553.91;5017906;28;20301;-76
2021/04/07 09:48:51;;;;;;;12.25;2.20;;;6.00;99.90;;;6.07;61.83;100547.13;5015540;28;20214;-76
2021/04/07 09:51:33;;;;;;;12.18;2.70;;;5.90;99.90;;;6.06;61.58;100543.69;5015594;28;20218;-76
2021/04/07 09:54:20;;;;;;;10.38;2.22;;;5.90;99.90;;;6.13;61.19;100552.19;5019206;28;20219;-77
2021/04/07 09:56:59;;;;;;;12.85;2.47;;;6.00;99.90;;;6.22;61.82;100552.00;5014277;28;20226;-76
2021/04/07 09:59:42;;;;;;;10.30;2.40;;;6.10;99.90;;;6.32;62.45;100559.56;5000631;28;20222;-75
2021/04/07 10:02:12;;;;;;;14.50;2.67;;;6.10;99.90;;;6.46;62.20;100556.63;5026056;28;20296;-74
2021/04/07 10:04:41;;;;;;;12.50;2.20;;;6.30;99.90;;;6.50;61.53;100553.06;5018337;28;20194;-76
2021/04/07 10:07:17;;;;;;;11.25;2.47;;;6.40;99.90;;;6.55;60.81;100555.56;5003168;28;20210;-76
2021/04/07 10:09:45;;;;;;;12.93;2.40;;;6.40;99.90;;;6.41;60.54;100548.09;5005457;28;20569;-78
2021/04/07 10:12:14;;;;;;;10.73;2.00;;;6.30;99.90;;;6.33;60.79;100562.97;5004169;28;20244;-80
2021/04/07 10:14:48;;;;;;;9.90;2.10;;;6.20;99.90;;;6.16;60.05;100558.16;5032663;28;20197;-80
2021/04/07 10:17:18;;;;;;;9.20;2.30;;;5.90;99.90;;;6.08;60.46;100559.22;5023910;28;20285;-79
2021/04/07 10:19:47;;;;;;;9.73;2.83;;;5.80;99.90;;;6.10;60.25;100557.47;5016271;28;21711;-79
2021/04/07 10:22:20;;;;;;;9.07;2.50;;;5.80;99.90;;;6.23;60.42;100561.47;5005128;28;20222;-82
2021/04/07 10:24:49;;;;;;;10.50;2.67;;;6.00;99.90;;;6.37;60.43;100564.63;5030304;28;20231;-80
2021/04/07 10:27:20;;;;;;;7.20;2.08;;;6.20;99.90;;;6.55;59.98;100555.56;5036256;28;20241;-78